Almond, North Carolina
Current Conditions -  °F | °C
As of 7:15 AM on Friday 31 Oct 2014 (Local Time) from KRHP Reporting Station
Haze Haze  
Wind Chill: 32°   Ceiling: 200
Heat Index: 32°   Visibility: 1mi
Dew Point: 32°   Wind: 0mph
Humidity: 100%   Direction: NA
Pressure: 29.97"   Gusts: NA
Location:  35.37°N, 83.57°W
Report Text: KRHP 311115Z AUTO 00000KT 1SM BR OVC002 00/00 A2997 RMK AO2 T00020002
Loading
Personal Weather Stations






























Interactive Weather Map
Tropical Storm Tracking
New forecast layout! Learn more

10-Day Weather Forecast

Advertisements
Track Severe Weather on mobile